Time;durP1;ratioP1;P1;durP2;ratioP2;P2;SDS_P1;SDS_P2;PMS_P1;PMS_P2;Temp;Humidity;BMP_temperature;BMP_pressure;BME280_temperature;BME280_humidity;BME280_pressure;Samples;Min_cycle;Max_cycle;Signal;HPM_P1;HPM_P2
2021/03/01 00:00:51;;;;;;;13.35;7.47;;;;;;;-2.29;100.00;101841.53;2578422;55;20117;-70
2021/03/01 00:03:20;;;;;;;15.57;8.23;;;;;;;-2.28;100.00;101842.44;2578469;55;20139;-68
2021/03/01 00:05:47;;;;;;;13.07;8.27;;;;;;;-2.24;100.00;101841.53;2578238;55;20117;-69
2021/03/01 00:08:15;;;;;;;16.20;8.98;;;;;;;-2.21;100.00;101853.72;2578558;55;20109;-71
2021/03/01 00:10:43;;;;;;;14.68;7.68;;;;;;;-2.19;100.00;101846.75;2578275;55;20113;-69
2021/03/01 00:13:10;;;;;;;12.90;7.53;;;;;;;-2.16;100.00;101847.59;2578317;55;20118;-68
2021/03/01 00:15:40;;;;;;;13.23;7.70;;;;;;;-2.14;100.00;101850.22;2578065;55;20649;-70
2021/03/01 00:18:08;;;;;;;12.88;7.37;;;;;;;-2.10;100.00;101842.38;2573378;55;20629;-69
2021/03/01 00:20:37;;;;;;;12.88;7.70;;;;;;;-2.12;100.00;101827.53;2578181;55;20113;-69
2021/03/01 00:23:04;;;;;;;17.80;8.32;;;;;;;-2.08;100.00;101813.56;2578343;55;20492;-70
2021/03/01 00:25:32;;;;;;;15.88;7.95;;;;;;;-2.05;100.00;101818.81;2578356;55;20114;-68
2021/03/01 00:28:00;;;;;;;14.63;8.20;;;;;;;-2.08;100.00;101797.03;2578330;55;20120;-69
2021/03/01 00:30:28;;;;;;;15.73;8.55;;;;;;;-2.05;100.00;101795.25;2578358;55;20131;-68
2021/03/01 00:32:56;;;;;;;16.62;8.80;;;;;;;-2.06;100.00;101795.25;2578194;55;20125;-70
2021/03/01 00:35:23;;;;;;;13.27;8.23;;;;;;;-2.08;100.00;101800.50;2578195;55;20125;-69
2021/03/01 00:37:52;;;;;;;16.02;8.68;;;;;;;-2.08;100.00;101791.78;2578272;55;20097;-71
2021/03/01 00:40:23;;;;;;;17.02;9.02;;;;;;;-2.07;100.00;101789.16;2578414;55;20622;-70
2021/03/01 00:42:51;;;;;;;14.77;7.82;;;;;;;-2.08;100.00;101797.88;2578410;55;20137;-70
2021/03/01 00:45:21;;;;;;;15.20;8.43;;;;;;;-2.13;100.00;101784.81;2578227;55;20145;-69
2021/03/01 00:47:48;;;;;;;15.48;8.02;;;;;;;-2.15;100.00;101802.28;2578324;55;20105;-70
2021/03/01 00:50:16;;;;;;;15.77;8.27;;;;;;;-2.15;100.00;101811.88;2578120;55;20113;-70
2021/03/01 00:52:44;;;;;;;13.88;7.03;;;;;;;-2.18;100.00;101817.09;2578292;55;20117;-70
2021/03/01 00:55:13;;;;;;;13.82;8.27;;;;;;;-2.18;100.00;101812.75;2578166;55;20101;-68
2021/03/01 00:57:41;;;;;;;13.50;8.25;;;;;;;-2.22;100.00;101811.00;2578212;55;20118;-68
2021/03/01 01:00:13;;;;;;;17.42;7.72;;;;;;;-2.20;100.00;101813.63;2578130;55;20157;-69
2021/03/01 01:02:43;;;;;;;17.17;8.35;;;;;;;-2.21;100.00;101797.06;2578313;55;20643;-68
2021/03/01 01:05:12;;;;;;;14.20;6.95;;;;;;;-2.19;100.00;101789.22;2578118;55;20169;-70
2021/03/01 01:07:40;;;;;;;16.58;7.72;;;;;;;-2.16;100.00;101784.84;2578329;55;20169;-71
2021/03/01 01:10:09;;;;;;;14.82;7.85;;;;;;;-2.14;100.00;101772.63;2578313;55;20113;-68
2021/03/01 01:12:38;;;;;;;13.20;7.68;;;;;;;-2.11;100.00;101766.50;2578099;55;20163;-71
2021/03/01 01:15:08;;;;;;;15.82;8.00;;;;;;;-2.05;100.00;101763.88;2577931;55;20120;-68
2021/03/01 01:17:36;;;;;;;12.70;7.62;;;;;;;-2.05;100.00;101763.00;2578129;55;20117;-69
2021/03/01 01:20:08;;;;;;;12.23;7.68;;;;;;;-2.00;100.00;101782.16;2577977;55;20105;-69
2021/03/01 01:22:36;;;;;;;17.17;8.00;;;;;;;-2.01;100.00;101788.25;2573041;55;20109;-69
2021/03/01 01:25:05;;;;;;;15.88;8.35;;;;;;;-2.02;100.00;101770.81;2578030;55;20110;-69
2021/03/01 01:27:32;;;;;;;17.33;8.95;;;;;;;-2.00;100.00;101774.31;2578959;55;20096;-70
2021/03/01 01:30:01;;;;;;;15.18;7.85;;;;;;;-2.01;100.00;101772.53;2578890;55;20587;-70
2021/03/01 01:32:30;;;;;;;16.75;9.07;;;;;;;-2.00;100.00;101784.78;2578883;55;20166;-68
2021/03/01 01:34:57;;;;;;;15.73;8.90;;;;;;;-2.01;100.00;101785.63;2578816;55;20557;-69
2021/03/01 01:37:25;;;;;;;16.37;9.10;;;;;;;-2.01;100.00;101783.00;2579162;55;20629;-71
2021/03/01 01:39:53;;;;;;;16.95;8.77;;;;;;;-2.05;100.00;101771.72;2579036;55;20129;-69
2021/03/01 01:42:20;;;;;;;18.77;8.65;;;;;;;-2.04;100.00;101767.34;2578889;55;20128;-69
2021/03/01 01:44:48;;;;;;;15.20;9.52;;;;;;;-2.01;100.00;101756.84;2578968;55;20158;-69
2021/03/01 01:47:17;;;;;;;14.48;8.38;;;;;;;-2.01;100.00;101756.84;2578944;55;20175;-69
2021/03/01 01:49:45;;;;;;;17.23;8.60;;;;;;;-1.99;100.00;101747.28;2578860;55;20157;-70
2021/03/01 01:52:12;;;;;;;16.50;8.18;;;;;;;-1.98;100.00;101756.84;2579026;55;20116;-69
2021/03/01 01:54:42;;;;;;;10.27;6.82;;;;;;;-1.94;100.00;101755.09;2578788;55;20126;-69
2021/03/01 01:57:10;;;;;;;11.20;6.82;;;;;;;-1.92;100.00;101758.56;2578932;55;20120;-69
2021/03/01 01:59:38;;;;;;;13.73;7.00;;;;;;;-1.96;100.00;101765.56;2578761;55;20123;-70
2021/03/01 02:02:06;;;;;;;11.38;7.10;;;;;;;-2.01;100.00;101772.53;2578738;55;20546;-70
2021/03/01 02:04:38;;;;;;;15.82;7.90;;;;;;;-2.03;100.00;101756.88;2578857;55;20125;-70
2021/03/01 02:07:11;;;;;;;14.02;7.65;;;;;;;-2.03;100.00;101742.91;2578848;55;20176;-70
2021/03/01 02:09:55;;;;;;;16.00;7.60;;;;;;;-2.02;100.00;101749.88;2578967;55;20112;-69
2021/03/01 02:12:35;;;;;;;12.48;7.65;;;;;;;-2.01;100.00;101746.38;2578823;55;20643;-70
2021/03/01 02:15:06;;;;;;;12.43;6.90;;;;;;;-2.00;100.00;101737.69;2578874;55;20128;-69
2021/03/01 02:17:33;;;;;;;14.40;6.60;;;;;;;-2.03;100.00;101732.47;2578828;55;20114;-71
2021/03/01 02:20:04;;;;;;;10.43;6.28;;;;;;;-2.03;100.00;101732.47;2578799;55;20128;-70
2021/03/01 02:22:33;;;;;;;9.20;5.93;;;;;;;-2.04;100.00;101722.88;2579271;55;20117;-69
2021/03/01 02:25:06;;;;;;;15.85;6.40;;;;;;;-2.04;100.00;101723.75;2578947;55;20113;-71
2021/03/01 02:27:39;;;;;;;10.50;6.82;;;;;;;-2.03;100.00;101724.63;2579121;55;20162;-71
2021/03/01 02:30:14;;;;;;;12.15;6.85;;;;;;;-2.05;100.00;101723.75;2578699;55;20119;-69
2021/03/01 02:32:43;;;;;;;15.63;6.82;;;;;;;-2.10;100.00;101732.50;2578743;55;20124;-69
2021/03/01 02:35:14;;;;;;;9.80;6.37;;;;;;;-2.16;100.00;101711.63;2578677;55;20109;-69
2021/03/01 02:37:45;;;;;;;10.52;6.10;;;;;;;-2.18;100.00;101705.53;2578779;55;20127;-69
2021/03/01 02:40:14;;;;;;;10.50;6.55;;;;;;;-2.19;100.00;101695.97;2578725;55;20137;-68
2021/03/01 02:42:43;;;;;;;11.85;6.93;;;;;;;-2.17;100.00;101696.81;2578790;55;20131;-69
2021/03/01 02:45:12;;;;;;;13.62;6.85;;;;;;;-2.16;100.00;101685.47;2578736;55;20118;-69
2021/03/01 02:47:40;;;;;;;12.52;6.95;;;;;;;-2.15;100.00;101695.03;2578594;55;20117;-69
2021/03/01 02:50:09;;;;;;;12.18;6.68;;;;;;;-2.14;100.00;101686.31;2578554;55;20669;-70
2021/03/01 02:52:38;;;;;;;14.27;7.53;;;;;;;-2.11;100.00;101694.13;2578671;55;20117;-68
2021/03/01 02:55:09;;;;;;;12.25;7.65;;;;;;;-2.08;100.00;101688.03;2578479;55;20097;-70
2021/03/01 02:57:38;;;;;;;14.77;7.35;;;;;;;-2.11;100.00;101688.91;2578746;55;20113;-69
2021/03/01 03:00:09;;;;;;;11.90;7.25;;;;;;;-2.08;100.00;101684.56;2578542;55;20608;-68
2021/03/01 03:02:38;;;;;;;;;;;;;;;-1.93;100.00;101687.03;2579020;55;20128;-70
2021/03/01 03:05:08;;;;;;;13.40;7.40;;;;;;;-2.02;100.00;101681.88;2578475;55;20410;-68
2021/03/01 03:07:37;;;;;;;12.63;7.32;;;;;;;-2.03;100.00;101688.88;2578469;55;20109;-70
2021/03/01 03:10:09;;;;;;;13.48;7.30;;;;;;;-2.04;100.00;101684.53;2578452;55;20122;-70
2021/03/01 03:12:40;;;;;;;18.87;7.30;;;;;;;-2.04;100.00;101679.28;2578611;55;20608;-68
2021/03/01 03:15:15;;;;;;;10.88;6.37;;;;;;;-2.02;100.00;101660.97;2578448;55;20136;-68
2021/03/01 03:17:44;;;;;;;11.18;7.03;;;;;;;-2.02;100.00;101671.41;2578745;55;20560;-69
2021/03/01 03:20:13;;;;;;;11.98;6.93;;;;;;;-2.06;100.00;101680.19;2578588;55;20121;-69
2021/03/01 03:22:41;;;;;;;12.88;6.25;;;;;;;-2.03;100.00;101681.03;2578803;55;20159;-69
2021/03/01 03:25:12;;;;;;;14.55;7.12;;;;;;;-2.02;100.00;101667.06;2578592;55;20528;-70
2021/03/01 03:27:41;;;;;;;14.38;6.90;;;;;;;-2.00;100.00;101661.84;2578478;55;20524;-69
2021/03/01 03:30:11;;;;;;;11.02;6.68;;;;;;;-2.02;100.00;101660.97;2578485;55;20105;-69
2021/03/01 03:32:39;;;;;;;13.62;6.40;;;;;;;-2.03;100.00;101669.69;2578445;55;20101;-68
2021/03/01 03:35:09;;;;;;;13.82;7.30;;;;;;;-2.01;100.00;101665.31;2578412;55;20492;-68
2021/03/01 03:37:42;;;;;;;13.90;7.97;;;;;;;-2.01;100.00;101660.06;2578521;55;20123;-69
2021/03/01 03:40:14;;;;;;;16.12;8.10;;;;;;;-2.01;100.00;101658.34;2578440;55;20595;-70
2021/03/01 03:42:43;;;;;;;16.62;7.20;;;;;;;-1.97;100.00;101656.56;2578683;55;20112;-70
2021/03/01 03:45:14;;;;;;;14.10;7.07;;;;;;;-1.97;100.00;101653.97;2578539;55;20112;-69
2021/03/01 03:47:43;;;;;;;13.23;7.32;;;;;;;-1.98;100.00;101662.69;2578556;55;20520;-68
2021/03/01 03:50:12;;;;;;;12.68;7.22;;;;;;;-1.98;100.00;101660.91;2578257;55;20118;-70
2021/03/01 03:52:44;;;;;;;13.85;7.95;;;;;;;-1.97;100.00;101669.66;2578453;55;20120;-70
2021/03/01 03:55:19;;;;;;;14.63;7.32;;;;;;;-1.93;100.00;101676.59;2578411;55;20112;-68
2021/03/01 03:57:54;;;;;;;11.85;6.97;;;;;;;-1.94;100.00;101663.53;2578596;55;20139;-70
2021/03/01 04:00:23;;;;;;;16.75;7.50;;;;;;;-1.97;100.00;101659.19;2578516;55;20675;-70
2021/03/01 04:02:53;;;;;;;13.32;7.15;;;;;;;-1.97;100.00;101643.50;2578497;55;20136;-70
2021/03/01 04:05:22;;;;;;;14.30;7.45;;;;;;;-2.00;100.00;101646.16;2578384;55;20148;-69
2021/03/01 04:07:50;;;;;;;12.63;6.78;;;;;;;-1.99;100.00;101647.88;2578359;55;20125;-68
2021/03/01 04:10:20;;;;;;;12.63;6.82;;;;;;;-2.00;100.00;101638.28;2578258;55;20504;-69
2021/03/01 04:12:51;;;;;;;16.75;6.80;;;;;;;-2.02;100.00;101634.81;2578420;55;20117;-68
2021/03/01 04:15:19;;;;;;;12.15;6.47;;;;;;;-2.01;100.00;101633.91;2578349;55;20127;-70
2021/03/01 04:17:49;;;;;;;14.93;6.60;;;;;;;-2.06;100.00;101627.88;2578416;55;20109;-70
2021/03/01 04:20:22;;;;;;;14.50;7.43;;;;;;;-2.05;100.00;101634.84;2578286;55;20122;-70
2021/03/01 04:22:51;;;;;;;15.63;7.40;;;;;;;-2.07;100.00;101636.59;2578566;55;20105;-68
2021/03/01 04:25:22;;;;;;;16.65;7.20;;;;;;;-2.06;100.00;101633.09;2578239;55;20120;-70
2021/03/01 04:27:51;;;;;;;14.82;7.70;;;;;;;-2.08;100.00;101634.88;2578383;55;20385;-70
2021/03/01 04:30:22;;;;;;;14.98;7.22;;;;;;;-2.17;100.00;101618.34;2578344;55;20558;-71
2021/03/01 04:32:51;;;;;;;;;;;;;;;-1.93;100.00;101632.09;2573565;55;20121;-70
2021/03/01 04:35:20;;;;;;;12.45;6.10;;;;;;;-2.04;100.00;101633.94;2578127;55;19976;-69
2021/03/01 04:37:48;;;;;;;11.85;6.82;;;;;;;-2.05;100.00;101627.88;2580437;55;20124;-69
2021/03/01 04:40:16;;;;;;;10.43;6.40;;;;;;;-2.00;100.00;101617.38;2578212;55;20497;-70
2021/03/01 04:42:47;;;;;;;11.30;6.53;;;;;;;-1.93;100.00;101613.81;2578479;55;20109;-70
2021/03/01 04:45:17;;;;;;;14.38;5.95;;;;;;;-1.89;100.00;101605.06;2577712;55;20109;-70
2021/03/01 04:47:48;;;;;;;11.75;6.25;;;;;;;-1.77;100.00;101603.22;2577791;55;20124;-68
2021/03/01 04:50:17;;;;;;;13.75;6.68;;;;;;;-1.74;100.00;101601.44;2577965;55;20161;-70
2021/03/01 04:52:46;;;;;;;12.88;5.87;;;;;;;-1.69;100.00;101596.16;2577990;55;20106;-70
2021/03/01 04:55:15;;;;;;;13.25;5.50;;;;;;;-1.64;100.00;101599.59;2577981;55;20112;-68
2021/03/01 04:57:45;;;;;;;11.05;5.60;;;;;;;-1.59;100.00;101603.03;2579088;55;20142;-69
2021/03/01 05:00:14;;;;;;;11.77;5.87;;;;;;;-1.55;100.00;101602.09;2580448;55;20132;-69
2021/03/01 05:02:43;;;;;;;10.75;5.93;;;;;;;-1.50;100.00;101609.03;2581096;55;20504;-68
2021/03/01 05:05:11;;;;;;;13.15;7.05;;;;;;;-1.48;100.00;101607.28;2579030;55;20117;-70
2021/03/01 05:07:40;;;;;;;11.15;5.78;;;;;;;-1.45;100.00;101607.25;2578986;55;20121;-70
2021/03/01 05:10:10;;;;;;;12.88;7.22;;;;;;;-1.44;100.00;101581.06;2579872;55;20131;-70
2021/03/01 05:12:38;;;;;;;14.37;9.50;;;;;;;-1.43;100.00;101577.56;2575667;55;20128;-70
2021/03/01 05:15:08;;;;;;;16.58;6.82;;;;;;;-1.38;100.00;101590.59;2578606;55;20241;-70
2021/03/01 05:17:38;;;;;;;16.90;8.57;;;;;;;-1.32;100.00;101585.28;2581210;55;20125;-68
2021/03/01 05:20:07;;;;;;;15.00;9.57;;;;;;;-1.29;100.00;101581.75;2583766;55;20109;-70
2021/03/01 05:22:34;;;;;;;11.75;7.05;;;;;;;-1.24;100.00;101586.94;2582387;55;20117;-69
2021/03/01 05:25:02;;;;;;;12.85;6.75;;;;;;;-1.17;100.00;101588.59;2581395;55;20117;-68
2021/03/01 05:27:32;;;;;;;12.45;7.53;;;;;;;-1.15;100.00;101590.34;2580309;55;20108;-70
2021/03/01 05:30:01;;;;;;;12.30;5.80;;;;;;;-1.08;100.00;101608.56;2579976;55;20113;-69
2021/03/01 05:32:30;;;;;;;8.98;5.37;;;;;;;-1.02;100.00;101604.13;2582415;55;20626;-68
2021/03/01 05:34:58;;;;;;;11.80;7.15;;;;;;;-0.99;100.00;101596.25;2581475;55;20124;-70
2021/03/01 05:37:25;;;;;;;11.38;6.22;;;;;;;-0.94;100.00;101590.06;2580794;55;20139;-68
2021/03/01 05:39:53;;;;;;;9.13;5.90;;;;;;;-0.85;100.00;101587.31;2578717;55;20187;-68
2021/03/01 05:42:23;;;;;;;11.68;7.90;;;;;;;-0.78;100.00;101591.59;2578562;55;20102;-69
2021/03/01 05:44:50;;;;;;;8.05;5.07;;;;;;;-0.73;100.00;101588.91;2578118;55;20616;-70
2021/03/01 05:47:19;;;;;;;10.48;5.90;;;;;;;-0.70;100.00;101591.50;2578523;55;20124;-70
2021/03/01 05:49:49;;;;;;;9.48;6.65;;;;;;;-0.65;100.00;101576.59;2578419;55;20109;-68
2021/03/01 05:52:18;;;;;;;12.05;6.80;;;;;;;-0.59;100.00;101570.38;2581040;55;20135;-68
2021/03/01 05:54:47;;;;;;;8.98;6.15;;;;;;;-0.53;100.00;101561.56;2579918;55;20628;-70
2021/03/01 05:57:15;;;;;;;10.75;7.07;;;;;;;-0.52;100.00;101560.66;2580645;55;20603;-69
2021/03/01 05:59:47;;;;;;;12.25;6.03;;;;;;;-0.46;100.00;101571.91;2581548;55;20162;-69
2021/03/01 06:02:17;;;;;;;9.20;6.07;;;;;;;-0.44;100.00;101578.00;2584046;55;20683;-69
2021/03/01 06:04:45;;;;;;;9.45;6.47;;;;;;;-0.40;100.00;101580.56;2583977;55;20565;-70
2021/03/01 06:07:13;;;;;;;9.95;6.43;;;;;;;-0.35;100.00;101571.75;2581301;55;20627;-69
2021/03/01 06:09:41;;;;;;;11.05;7.07;;;;;;;-0.34;100.00;101567.38;2580677;55;20120;-68
2021/03/01 06:12:10;;;;;;;10.70;7.95;;;;;;;-0.32;100.00;101574.31;2580567;55;20174;-75
2021/03/01 06:14:38;;;;;;;10.10;7.15;;;;;;;-0.29;100.00;101576.88;2581086;55;20119;-74
2021/03/01 06:17:13;;;;;;;12.98;8.48;;;;;;;-0.23;100.00;101583.78;2579157;55;20612;-71
2021/03/01 06:19:49;;;;;;;14.45;8.30;;;;;;;-0.20;100.00;101589.00;2573667;55;20121;-70
2021/03/01 06:22:19;;;;;;;11.65;7.35;;;;;;;-0.19;100.00;101590.75;2582033;55;20132;-70
2021/03/01 06:25:06;;;;;;;12.02;7.55;;;;;;;-0.15;100.00;101584.53;2582422;55;20128;-72
2021/03/01 06:27:50;;;;;;;13.07;8.55;;;;;;;-0.10;100.00;101584.47;2583112;55;20131;-70
2021/03/01 06:30:20;;;;;;;10.07;7.47;;;;;;;-0.16;100.00;101572.31;2583101;55;20116;-71
2021/03/01 06:33:05;;;;;;;12.13;7.53;;;;;;;-0.04;100.00;101567.75;2583057;55;20129;-72
2021/03/01 06:35:35;;;;;;;11.27;7.40;;;;;;;-0.07;100.00;101573.91;2583601;55;20131;-70
2021/03/01 06:38:21;;;;;;;14.73;8.60;;;;;;;0.01;100.00;101559.81;2583965;55;20153;-70
2021/03/01 06:41:13;;;;;;;6.53;5.25;;;;;;;0.16;100.00;101559.53;2583953;55;20109;-70
2021/03/01 06:43:57;;;;;;;7.07;5.15;;;;;;;0.15;100.00;101557.81;2584218;55;20113;-72
2021/03/01 06:46:27;;;;;;;7.12;4.35;;;;;;;0.23;100.00;101539.28;2583214;55;20119;-70
2021/03/01 06:48:55;;;;;;;4.82;4.37;;;;;;;0.25;100.00;101529.63;2583979;55;20134;-69
2021/03/01 06:51:23;;;;;;;7.68;5.07;;;;;;;0.26;100.00;101521.72;2584124;55;20127;-70
2021/03/01 06:54:01;;;;;;;6.72;4.47;;;;;;;0.34;100.00;101525.94;2584140;55;20136;-70
2021/03/01 06:56:37;;;;;;;6.87;5.15;;;;;;;0.38;100.00;101512.72;2583823;55;20139;-73
2021/03/01 06:59:13;;;;;;;7.68;4.43;;;;;;;0.44;100.00;101517.00;2584077;55;20149;-70
2021/03/01 07:01:48;;;;;;;4.95;3.62;;;;;;;0.47;100.00;101516.06;2583814;55;20134;-69
2021/03/01 07:04:21;;;;;;;5.25;3.80;;;;;;;0.52;100.00;101498.47;2584004;55;20156;-73
2021/03/01 07:06:50;;;;;;;5.80;4.28;;;;;;;0.52;100.00;101501.09;2583720;55;20912;-70
2021/03/01 07:09:20;;;;;;;9.35;4.53;;;;;;;0.56;100.00;101497.50;2583941;55;20119;-72
2021/03/01 07:11:48;;;;;;;5.32;3.53;;;;;;;0.62;100.00;101493.88;2583754;55;20133;-72
2021/03/01 07:14:18;;;;;;;4.57;3.47;;;;;;;0.61;100.00;101493.03;2584139;55;20108;-72
2021/03/01 07:16:47;;;;;;;6.68;3.70;;;;;;;0.66;100.00;101498.19;2583742;55;20112;-69
2021/03/01 07:19:16;;;;;;;7.12;3.72;;;;;;;0.66;100.00;101491.16;2583916;55;20177;-73
2021/03/01 07:21:45;;;;;;;4.30;3.17;;;;;;;0.68;100.00;101488.50;2583887;55;20125;-70
2021/03/01 07:24:16;;;;;;;5.70;3.20;;;;;;;0.73;100.00;101483.16;2583781;55;20626;-72
2021/03/01 07:26:45;;;;;;;5.50;3.35;;;;;;;0.79;100.00;101489.12;2583805;55;20121;-70
2021/03/01 07:29:15;;;;;;;6.37;4.15;;;;;;;0.81;100.00;101479.44;2583874;55;20105;-70
2021/03/01 07:31:48;;;;;;;5.53;3.25;;;;;;;0.82;100.00;101480.34;2583690;55;20793;-70
2021/03/01 07:34:18;;;;;;;3.72;3.33;;;;;;;0.84;100.00;101478.53;2584155;55;20116;-70
2021/03/01 07:36:46;;;;;;;6.53;3.80;;;;;;;0.88;100.00;101490.69;2583775;55;20113;-73
2021/03/01 07:39:13;;;;;;;5.82;3.45;;;;;;;0.85;100.00;101482.88;2583850;55;20135;-70
2021/03/01 07:41:42;;;;;;;4.78;3.53;;;;;;;0.89;100.00;101475.78;2583736;55;20135;-73
2021/03/01 07:44:11;;;;;;;5.18;3.05;;;;;;;0.94;100.00;101477.41;2583704;55;20109;-70
2021/03/01 07:46:42;;;;;;;6.80;3.60;;;;;;;0.93;100.00;101465.19;2583674;55;20512;-70
2021/03/01 07:49:12;;;;;;;4.47;3.08;;;;;;;0.95;100.00;101458.13;2583789;55;20121;-72
2021/03/01 07:51:42;;;;;;;7.47;3.17;;;;;;;1.00;100.00;101451.88;2583800;55;20116;-73
2021/03/01 07:54:11;;;;;;;5.03;3.07;;;;;;;1.04;100.00;101453.56;2583860;55;20128;-70
2021/03/01 07:56:50;;;;;;;4.12;2.85;;;;;;;1.15;100.00;101456.78;2583639;55;20168;-72
2021/03/01 07:59:33;;;;;;;3.78;2.67;;;;;;;1.20;100.00;101451.44;2583911;55;20630;-73
2021/03/01 08:02:21;;;;;;;5.68;2.67;;;;;;;1.21;100.00;101451.41;2583620;55;20109;-70
2021/03/01 08:04:50;;;;;;;4.57;2.80;;;;;;;1.19;100.00;101447.06;2584027;55;20105;-73
2021/03/01 08:07:18;;;;;;;4.40;2.58;;;;;;;1.16;100.00;101450.63;2583715;55;20120;-72
2021/03/01 08:09:51;;;;;;;4.60;2.42;;;;;;;1.23;100.00;101448.72;2583710;55;20110;-70
2021/03/01 08:12:56;;;;;;;3.80;2.45;;;;;;;1.30;100.00;101452.06;2583861;55;20112;-70
2021/03/01 08:15:30;;;;;;;4.53;2.33;;;;;;;1.29;100.00;101452.94;2583742;55;20116;-72
2021/03/01 08:17:58;;;;;;;3.83;2.37;;;;;;;1.30;100.00;101454.69;2583657;55;20105;-70
2021/03/01 08:20:45;;;;;;;5.55;2.45;;;;;;;1.32;100.00;101452.91;2583695;55;20524;-73
2021/03/01 08:23:18;;;;;;;8.95;2.92;;;;;;;1.33;100.00;101449.38;2583658;55;20503;-73
2021/03/01 08:25:54;;;;;;;3.92;2.17;;;;;;;1.41;100.00;101447.41;2583549;55;20111;-71
2021/03/01 08:28:44;;;;;;;4.45;2.50;;;;;;;1.55;100.00;101436.50;2583592;55;20113;-71
2021/03/01 08:31:39;;;;;;;5.35;2.50;;;;;;;1.57;100.00;101431.22;2583569;55;20618;-68
2021/03/01 08:34:33;;;;;;;3.83;2.58;;;;;;;1.66;100.00;101431.88;2583829;55;20116;-69
2021/03/01 08:37:03;;;;;;;4.68;2.05;;;;;;;1.68;100.00;101434.44;2583298;55;20104;-71
2021/03/01 08:40:07;;;;;;;5.40;2.50;;;;;;;1.84;100.00;101432.25;2583556;55;20113;-68
2021/03/01 08:42:55;;;;;;;3.92;2.70;;;;;;;1.87;100.00;101433.94;2583826;55;20117;-69
2021/03/01 08:45:29;;;;;;;5.75;2.90;;;;;;;1.87;100.00;101444.47;2583722;55;20500;-72
2021/03/01 08:48:00;;;;;;;7.22;2.50;;;;;;;1.87;100.00;101439.22;2583748;55;20113;-70
2021/03/01 08:50:30;;;;;;;3.58;2.30;;;;;;;1.89;100.00;101430.37;2583611;55;20113;-70
2021/03/01 08:52:58;;;;;;;6.28;2.33;;;;;;;1.92;100.00;101432.06;2583492;55;20154;-70
2021/03/01 08:55:25;;;;;;;3.45;2.20;;;;;;;1.96;100.00;101428.44;2583519;55;20122;-73
2021/03/01 08:57:59;;;;;;;3.45;2.30;;;;;;;2.02;100.00;101417.75;2583547;55;20137;-73
2021/03/01 09:00:28;;;;;;;5.22;2.20;;;;;;;2.03;100.00;101415.97;2583576;55;20620;-74
2021/03/01 09:03:13;;;;;;;2.97;2.00;;;;;;;2.12;100.00;101418.34;2583479;55;20550;-74
2021/03/01 09:05:42;;;;;;;2.60;2.03;;;;;;;2.05;100.00;101435.19;2583389;55;20117;-70
2021/03/01 09:08:10;;;;;;;3.30;2.20;;;;;;;2.03;100.00;101437.91;2583730;55;20518;-73
2021/03/01 09:10:43;;;;;;;5.60;2.30;;;;;;;2.03;100.00;101445.78;2583322;55;20128;-70
2021/03/01 09:13:17;;;;;;;3.62;2.30;;;;;;;2.03;100.00;101440.53;2583611;55;20113;-73
2021/03/01 09:15:46;;;;;;;4.50;1.80;;;;;;;2.02;100.00;101433.53;2583524;55;20654;-73
2021/03/01 09:18:16;;;;;;;5.87;2.72;;;;;;;2.08;100.00;101429.87;2583374;55;20112;-73
2021/03/01 09:20:46;;;;;;;4.90;1.48;;;;;;;2.09;100.00;101427.16;2583230;55;20496;-73
2021/03/01 09:23:15;;;;;;;4.85;1.60;;;;;;;2.13;100.00;101427.09;2583362;55;20793;-74
2021/03/01 09:25:42;;;;;;;3.65;2.20;;;;;;;2.14;100.00;101426.19;2583371;55;20113;-74
2021/03/01 09:28:10;;;;;;;2.72;1.90;;;;;;;2.19;100.00;101437.44;2583600;55;20121;-74
2021/03/01 09:30:38;;;;;;;2.78;1.70;;;;;;;2.20;100.00;101432.16;2583528;55;20109;-72
2021/03/01 09:33:07;;;;;;;2.47;1.52;;;;;;;2.25;99.74;101426.75;2583479;55;20177;-73
2021/03/01 09:35:36;;;;;;;3.72;1.87;;;;;;;2.25;100.00;101417.97;2583308;55;20165;-70
2021/03/01 09:38:05;;;;;;;4.35;1.58;;;;;;;2.24;100.00;101409.22;2583385;55;20113;-73
2021/03/01 09:40:33;;;;;;;3.53;1.80;;;;;;;2.30;100.00;101416.09;2583422;55;20156;-73
2021/03/01 09:43:04;;;;;;;2.87;1.70;;;;;;;2.34;100.00;101418.59;2583322;55;20234;-71
2021/03/01 09:45:35;;;;;;;4.47;1.65;;;;;;;2.33;100.00;101410.72;2583478;55;20515;-73
2021/03/01 09:48:05;;;;;;;2.22;1.58;;;;;;;2.39;99.24;101420.19;2583982;55;20109;-74
2021/03/01 09:50:37;;;;;;;4.82;2.00;;;;;;;2.43;99.00;101408.69;2584013;55;20138;-70
2021/03/01 09:53:06;;;;;;;3.03;1.50;;;;;;;2.46;98.20;101413.84;2584342;55;20506;-71
2021/03/01 09:55:34;;;;;;;2.35;1.67;;;;;;;2.49;98.31;101397.94;2584299;55;20108;-73
2021/03/01 09:58:01;;;;;;;3.72;1.48;;;;;;;2.49;98.64;101379.50;2584046;55;20135;-71
2021/03/01 10:00:31;;;;;;;8.40;2.40;;;;;;;2.52;97.91;101378.56;2584020;55;20169;-74
2021/03/01 10:03:01;;;;;;;3.85;2.10;;;;;;;2.53;97.91;101372.37;2584165;55;20127;-71
2021/03/01 10:05:30;;;;;;;4.37;2.33;;;;;;;2.58;97.40;101363.41;2583947;55;20101;-70
2021/03/01 10:08:03;;;;;;;2.80;1.50;;;;;;;2.56;97.09;101365.25;2584195;55;20122;-73
2021/03/01 10:10:37;;;;;;;3.65;1.37;;;;;;;2.59;97.38;101375.69;2584128;55;20109;-71
2021/03/01 10:13:06;;;;;;;3.08;1.70;;;;;;;2.50;98.03;101383.88;2584165;55;20622;-74
2021/03/01 10:15:47;;;;;;;2.83;1.23;;;;;;;2.56;98.28;101385.47;2584079;55;20664;-70
2021/03/01 10:18:16;;;;;;;2.25;1.12;;;;;;;2.52;97.87;101395.25;2584071;55;20113;-74
2021/03/01 10:20:51;;;;;;;4.15;1.62;;;;;;;2.56;98.18;101383.69;2584053;55;20101;-74
2021/03/01 10:23:30;;;;;;;3.70;1.60;;;;;;;2.58;97.49;101388.91;2584201;55;20101;-74
2021/03/01 10:26:17;;;;;;;7.82;2.10;;;;;;;2.62;98.17;101375.59;2584191;55;20112;-74
2021/03/01 10:28:51;;;;;;;4.22;1.27;;;;;;;2.58;97.01;101379.22;2583925;55;20164;-71
2021/03/01 10:31:21;;;;;;;1.50;1.00;;;;;;;2.55;97.63;101379.34;2583980;55;20125;-73
2021/03/01 10:34:00;;;;;;;2.17;1.35;;;;;;;2.63;97.35;101368.53;2583994;55;20097;-70
2021/03/01 10:36:32;;;;;;;3.47;1.45;;;;;;;2.66;97.18;101367.59;2583897;55;20499;-71
2021/03/01 10:39:06;;;;;;;5.72;1.40;;;;;;;2.71;96.77;101368.31;2584146;55;20112;-71
2021/03/01 10:41:41;;;;;;;2.95;1.55;;;;;;;2.75;97.16;101364.66;2583594;55;20157;-71
2021/03/01 10:44:10;;;;;;;5.03;1.70;;;;;;;2.72;96.08;101352.44;2583955;55;20207;-71
2021/03/01 10:46:40;;;;;;;3.78;1.85;;;;;;;2.75;96.34;101348.84;2583860;55;20130;-70
2021/03/01 10:49:20;;;;;;;5.75;1.45;;;;;;;2.83;96.35;101346.84;2584255;55;20487;-71
2021/03/01 10:51:48;;;;;;;3.22;1.73;;;;;;;2.81;95.51;101343.41;2584003;55;20119;-71
2021/03/01 10:54:17;;;;;;;3.17;1.92;;;;;;;2.85;95.22;101342.37;2584057;55;20496;-70
2021/03/01 10:56:45;;;;;;;3.90;1.15;;;;;;;2.88;94.08;101339.63;2583973;55;20486;-73
2021/03/01 10:59:13;;;;;;;4.32;1.20;;;;;;;2.90;94.29;101337.78;2583603;55;20536;-74
2021/03/01 11:01:42;;;;;;;4.00;1.37;;;;;;;2.84;94.02;101326.59;2583793;55;20120;-74
2021/03/01 11:04:11;;;;;;;2.40;1.05;;;;;;;2.95;93.21;101334.16;2583842;55;20105;-70
2021/03/01 11:06:39;;;;;;;2.80;1.30;;;;;;;2.98;93.47;101341.97;2583692;55;20135;-74
2021/03/01 11:09:09;;;;;;;5.15;1.35;;;;;;;2.98;93.26;101349.88;2583919;55;20101;-74
2021/03/01 11:11:38;;;;;;;3.60;1.40;;;;;;;3.06;93.27;101338.16;2583854;55;20127;-71
2021/03/01 11:14:09;;;;;;;5.30;1.60;;;;;;;3.13;92.85;101336.19;2584172;55;20124;-74
2021/03/01 11:16:37;;;;;;;4.03;1.30;;;;;;;3.19;91.83;101320.12;2583951;55;20120;-70
2021/03/01 11:19:05;;;;;;;2.37;1.30;;;;;;;3.26;91.15;101312.88;2584114;55;20153;-71
2021/03/01 11:21:33;;;;;;;3.62;1.23;;;;;;;3.30;91.59;101309.22;2583593;55;20531;-72
2021/03/01 11:24:02;;;;;;;2.12;1.12;;;;;;;3.36;90.14;101292.31;2583950;55;20162;-69
2021/03/01 11:26:29;;;;;;;3.65;1.50;;;;;;;3.41;89.04;101289.50;2583879;55;20508;-71
2021/03/01 11:28:57;;;;;;;2.87;1.33;;;;;;;3.46;89.10;101288.44;2583802;55;20108;-71
2021/03/01 11:31:29;;;;;;;2.70;1.40;;;;;;;3.50;88.70;101277.75;2584040;55;20146;-71
2021/03/01 11:33:57;;;;;;;3.83;1.95;;;;;;;3.50;88.01;101272.47;2583880;55;20111;-71